sensor_id;sensor_type;location;lat;lon;timestamp;temperature;humidity
10441;DHT22;5268;49.346;9.522;2022-08-04T03:20:52;20.80;81.70
10441;DHT22;5268;49.346;9.522;2022-08-04T03:37:59;20.70;83.70
10441;DHT22;5268;49.346;9.522;2022-08-04T03:43:45;20.60;81.80
10441;DHT22;5268;49.346;9.522;2022-08-04T03:49:09;20.60;80.80
10441;DHT22;5268;49.346;9.522;2022-08-04T03:54:38;20.50;80.40
10441;DHT22;5268;49.346;9.522;2022-08-04T04:00:07;20.40;81.20
10441;DHT22;5268;49.346;9.522;2022-08-04T04:05:38;20.40;83.70
10441;DHT22;5268;49.346;9.522;2022-08-04T04:11:00;20.40;83.70
10441;DHT22;5268;49.346;9.522;2022-08-04T04:21:57;20.40;83.20
10441;DHT22;5268;49.346;9.522;2022-08-04T04:27:08;20.40;83.40
10441;DHT22;5268;49.346;9.522;2022-08-04T04:32:22;20.40;81.80
10441;DHT22;5268;49.346;9.522;2022-08-04T04:37:36;20.40;81.70
10441;DHT22;5268;49.346;9.522;2022-08-04T04:43:09;20.30;84.30
10441;DHT22;5268;49.346;9.522;2022-08-04T04:48:16;20.30;83.40
10441;DHT22;5268;49.346;9.522;2022-08-04T04:53:28;20.30;82.30
10441;DHT22;5268;49.346;9.522;2022-08-04T04:58:37;20.20;82.10
10441;DHT22;5268;49.346;9.522;2022-08-04T05:03:48;20.30;81.90
10441;DHT22;5268;49.346;9.522;2022-08-04T05:09:16;20.30;81.70
10441;DHT22;5268;49.346;9.522;2022-08-04T05:14:24;20.30;82.90
10441;DHT22;5268;49.346;9.522;2022-08-04T05:19:33;20.30;81.90
10441;DHT22;5268;49.346;9.522;2022-08-04T05:24:42;20.40;82.00
10441;DHT22;5268;49.346;9.522;2022-08-04T05:29:51;20.70;81.20
10441;DHT22;5268;49.346;9.522;2022-08-04T05:34:57;21.20;82.40
10441;DHT22;5268;49.346;9.522;2022-08-04T05:40:03;21.50;80.40
10441;DHT22;5268;49.346;9.522;2022-08-04T05:45:08;21.60;80.20
10441;DHT22;5268;49.346;9.522;2022-08-04T05:50:11;21.60;81.70
10441;DHT22;5268;49.346;9.522;2022-08-04T05:55:15;21.60;82.50
10441;DHT22;5268;49.346;9.522;2022-08-04T06:00:19;21.60;87.90
10441;DHT22;5268;49.346;9.522;2022-08-04T06:05:22;21.70;86.50
10441;DHT22;5268;49.346;9.522;2022-08-04T06:10:25;21.80;84.80
10441;DHT22;5268;49.346;9.522;2022-08-04T06:15:30;22.00;90.00
10441;DHT22;5268;49.346;9.522;2022-08-04T06:20:34;22.30;84.20
10441;DHT22;5268;49.346;9.522;2022-08-04T06:25:40;22.60;86.50
10441;DHT22;5268;49.346;9.522;2022-08-04T06:30:45;22.90;82.80
10441;DHT22;5268;49.346;9.522;2022-08-04T06:35:51;23.20;83.30
10441;DHT22;5268;49.346;9.522;2022-08-04T06:40:55;23.60;81.80
10441;DHT22;5268;49.346;9.522;2022-08-04T06:46:00;23.90;84.70
10441;DHT22;5268;49.346;9.522;2022-08-04T06:51:03;24.30;82.10
10441;DHT22;5268;49.346;9.522;2022-08-04T06:56:07;24.80;82.30
10441;DHT22;5268;49.346;9.522;2022-08-04T07:01:12;25.30;81.80
10441;DHT22;5268;49.346;9.522;2022-08-04T07:06:15;25.80;81.60
10441;DHT22;5268;49.346;9.522;2022-08-04T07:11:18;26.30;80.30
10441;DHT22;5268;49.346;9.522;2022-08-04T07:16:22;26.80;80.70
10441;DHT22;5268;49.346;9.522;2022-08-04T07:21:25;27.20;80.00
10441;DHT22;5268;49.346;9.522;2022-08-04T07:26:28;27.70;80.10
10441;DHT22;5268;49.346;9.522;2022-08-04T07:31:31;28.10;79.70
10441;DHT22;5268;49.346;9.522;2022-08-04T07:36:34;28.50;79.00
10441;DHT22;5268;49.346;9.522;2022-08-04T07:41:36;29.00;78.50
10441;DHT22;5268;49.346;9.522;2022-08-04T07:46:40;29.50;78.60
10441;DHT22;5268;49.346;9.522;2022-08-04T07:51:42;29.90;78.40
10441;DHT22;5268;49.346;9.522;2022-08-04T07:56:45;30.40;77.40
10441;DHT22;5268;49.346;9.522;2022-08-04T08:01:50;30.90;77.50
10441;DHT22;5268;49.346;9.522;2022-08-04T08:06:52;31.30;77.40
10441;DHT22;5268;49.346;9.522;2022-08-04T08:11:54;31.70;76.20
10441;DHT22;5268;49.346;9.522;2022-08-04T08:16:59;32.10;75.70
10441;DHT22;5268;49.346;9.522;2022-08-04T08:22:02;32.40;72.70
10441;DHT22;5268;49.346;9.522;2022-08-04T08:27:05;32.70;72.70
10441;DHT22;5268;49.346;9.522;2022-08-04T08:32:10;33.10;74.10
10441;DHT22;5268;49.346;9.522;2022-08-04T08:37:20;33.50;73.60
10441;DHT22;5268;49.346;9.522;2022-08-04T08:42:44;33.90;72.20
10441;DHT22;5268;49.346;9.522;2022-08-04T08:48:27;34.20;72.30
10441;DHT22;5268;49.346;9.522;2022-08-04T08:53:53;34.50;72.10
10441;DHT22;5268;49.346;9.522;2022-08-04T08:59:33;34.80;67.60
10441;DHT22;5268;49.346;9.522;2022-08-04T09:04:56;34.90;67.60
10441;DHT22;5268;49.346;9.522;2022-08-04T09:10:08;35.00;62.70
10441;DHT22;5268;49.346;9.522;2022-08-04T09:15:15;34.90;55.00
10441;DHT22;5268;49.346;9.522;2022-08-04T09:20:28;34.90;58.80
10441;DHT22;5268;49.346;9.522;2022-08-04T09:25:37;35.00;63.00
10441;DHT22;5268;49.346;9.522;2022-08-04T09:30:44;35.30;61.30
10441;DHT22;5268;49.346;9.522;2022-08-04T09:35:56;35.60;55.50
10441;DHT22;5268;49.346;9.522;2022-08-04T09:41:02;35.90;62.00
10441;DHT22;5268;49.346;9.522;2022-08-04T09:46:18;36.10;62.90
10441;DHT22;5268;49.346;9.522;2022-08-04T09:51:35;36.40;58.40
10441;DHT22;5268;49.346;9.522;2022-08-04T09:56:45;36.70;62.60
10441;DHT22;5268;49.346;9.522;2022-08-04T10:01:56;37.10;63.90
10441;DHT22;5268;49.346;9.522;2022-08-04T10:07:14;37.40;61.70
10441;DHT22;5268;49.346;9.522;2022-08-04T10:12:30;37.60;62.50
10441;DHT22;5268;49.346;9.522;2022-08-04T10:17:50;37.80;61.50
10441;DHT22;5268;49.346;9.522;2022-08-04T10:23:09;38.00;53.20
10441;DHT22;5268;49.346;9.522;2022-08-04T10:28:16;38.20;61.30
10441;DHT22;5268;49.346;9.522;2022-08-04T10:33:23;38.30;59.40
10441;DHT22;5268;49.346;9.522;2022-08-04T10:38:30;38.60;58.50
10441;DHT22;5268;49.346;9.522;2022-08-04T10:43:41;38.70;58.90
10441;DHT22;5268;49.346;9.522;2022-08-04T10:48:50;38.70;58.90
10441;DHT22;5268;49.346;9.522;2022-08-04T10:53:59;38.90;59.30
10441;DHT22;5268;49.346;9.522;2022-08-04T10:59:10;38.70;56.80
10441;DHT22;5268;49.346;9.522;2022-08-04T11:04:20;38.80;55.20
10441;DHT22;5268;49.346;9.522;2022-08-04T11:09:26;38.80;57.80
10441;DHT22;5268;49.346;9.522;2022-08-04T11:14:33;38.90;58.10
10441;DHT22;5268;49.346;9.522;2022-08-04T11:19:43;39.10;58.30
10441;DHT22;5268;49.346;9.522;2022-08-04T11:24:52;39.10;55.70
10441;DHT22;5268;49.346;9.522;2022-08-04T11:30:02;39.10;56.60
10441;DHT22;5268;49.346;9.522;2022-08-04T11:35:08;38.30;45.90
10441;DHT22;5268;49.346;9.522;2022-08-04T11:40:21;38.10;48.30
10441;DHT22;5268;49.346;9.522;2022-08-04T11:45:35;37.70;48.70
10441;DHT22;5268;49.346;9.522;2022-08-04T11:50:39;37.50;51.30
10441;DHT22;5268;49.346;9.522;2022-08-04T11:55:49;37.50;48.60
10441;DHT22;5268;49.346;9.522;2022-08-04T12:01:03;37.50;51.20
10441;DHT22;5268;49.346;9.522;2022-08-04T12:06:14;37.80;54.30
10441;DHT22;5268;49.346;9.522;2022-08-04T12:11:27;38.20;53.00
10441;DHT22;5268;49.346;9.522;2022-08-04T12:16:44;38.30;50.00
10441;DHT22;5268;49.346;9.522;2022-08-04T12:21:51;38.10;50.10
10441;DHT22;5268;49.346;9.522;2022-08-04T12:26:58;37.90;50.00
10441;DHT22;5268;49.346;9.522;2022-08-04T12:32:17;38.00;52.00
10441;DHT22;5268;49.346;9.522;2022-08-04T12:37:27;38.30;51.80
10441;DHT22;5268;49.346;9.522;2022-08-04T12:42:39;38.60;52.70
10441;DHT22;5268;49.346;9.522;2022-08-04T12:47:45;38.80;49.90
10441;DHT22;5268;49.346;9.522;2022-08-04T12:52:51;38.80;52.30
10441;DHT22;5268;49.346;9.522;2022-08-04T12:57:57;38.80;50.60
10441;DHT22;5268;49.346;9.522;2022-08-04T13:03:04;38.90;53.30
10441;DHT22;5268;49.346;9.522;2022-08-04T13:08:09;39.00;53.50
10441;DHT22;5268;49.346;9.522;2022-08-04T13:13:16;39.10;52.40
10441;DHT22;5268;49.346;9.522;2022-08-04T13:18:18;39.20;52.30
10441;DHT22;5268;49.346;9.522;2022-08-04T13:23:21;39.20;52.00
10441;DHT22;5268;49.346;9.522;2022-08-04T13:28:28;39.30;51.60
10441;DHT22;5268;49.346;9.522;2022-08-04T13:33:33;39.30;51.80
10441;DHT22;5268;49.346;9.522;2022-08-04T13:38:38;39.10;49.40
10441;DHT22;5268;49.346;9.522;2022-08-04T13:43:45;39.00;50.50
10441;DHT22;5268;49.346;9.522;2022-08-04T13:48:48;39.00;50.60
10441;DHT22;5268;49.346;9.522;2022-08-04T13:53:55;38.90;49.30
10441;DHT22;5268;49.346;9.522;2022-08-04T13:59:00;38.70;50.50
10441;DHT22;5268;49.346;9.522;2022-08-04T14:04:08;38.80;51.50
10441;DHT22;5268;49.346;9.522;2022-08-04T14:09:15;38.90;51.30
10441;DHT22;5268;49.346;9.522;2022-08-04T14:14:21;38.90;49.80
10441;DHT22;5268;49.346;9.522;2022-08-04T14:19:24;38.90;51.20
10441;DHT22;5268;49.346;9.522;2022-08-04T14:24:28;38.90;49.40
10441;DHT22;5268;49.346;9.522;2022-08-04T14:29:37;38.90;49.80
10441;DHT22;5268;49.346;9.522;2022-08-04T14:34:43;38.80;51.10
10441;DHT22;5268;49.346;9.522;2022-08-04T14:39:47;38.80;50.40
10441;DHT22;5268;49.346;9.522;2022-08-04T14:44:55;38.70;50.10
10441;DHT22;5268;49.346;9.522;2022-08-04T14:49:57;38.80;50.20
10441;DHT22;5268;49.346;9.522;2022-08-04T14:55:14;38.70;51.60
10441;DHT22;5268;49.346;9.522;2022-08-04T15:00:26;38.70;50.50
10441;DHT22;5268;49.346;9.522;2022-08-04T15:05:28;38.60;50.90
10441;DHT22;5268;49.346;9.522;2022-08-04T15:10:31;38.10;49.40
10441;DHT22;5268;49.346;9.522;2022-08-04T15:15:35;38.10;50.00
10441;DHT22;5268;49.346;9.522;2022-08-04T15:20:39;38.00;50.50
10441;DHT22;5268;49.346;9.522;2022-08-04T15:25:44;38.10;50.70
10441;DHT22;5268;49.346;9.522;2022-08-04T15:30:50;38.20;51.00
10441;DHT22;5268;49.346;9.522;2022-08-04T15:35:55;38.20;51.10
10441;DHT22;5268;49.346;9.522;2022-08-04T15:41:15;38.00;47.80
10441;DHT22;5268;49.346;9.522;2022-08-04T15:52:09;37.50;47.80
10441;DHT22;5268;49.346;9.522;2022-08-04T15:57:12;37.30;48.50
10441;DHT22;5268;49.346;9.522;2022-08-04T16:02:37;37.40;50.00
10441;DHT22;5268;49.346;9.522;2022-08-04T16:07:55;37.50;49.60
10441;DHT22;5268;49.346;9.522;2022-08-04T16:13:03;37.60;50.50
10441;DHT22;5268;49.346;9.522;2022-08-04T16:18:08;37.60;51.00
10441;DHT22;5268;49.346;9.522;2022-08-04T16:23:33;37.70;50.60
10441;DHT22;5268;49.346;9.522;2022-08-04T16:28:41;37.70;50.90
10441;DHT22;5268;49.346;9.522;2022-08-04T16:33:45;37.70;50.80
10441;DHT22;5268;49.346;9.522;2022-08-04T16:38:59;37.70;50.40
10441;DHT22;5268;49.346;9.522;2022-08-04T16:49:37;37.40;50.30
10441;DHT22;5268;49.346;9.522;2022-08-04T16:54:39;37.40;50.60
10441;DHT22;5268;49.346;9.522;2022-08-04T16:59:49;37.30;51.30
10441;DHT22;5268;49.346;9.522;2022-08-04T17:04:53;37.30;50.90
10441;DHT22;5268;49.346;9.522;2022-08-04T17:09:55;37.30;50.80
10441;DHT22;5268;49.346;9.522;2022-08-04T17:14:58;37.20;51.50
10441;DHT22;5268;49.346;9.522;2022-08-04T17:20:01;37.10;51.10
10441;DHT22;5268;49.346;9.522;2022-08-04T17:25:04;37.10;51.80
10441;DHT22;5268;49.346;9.522;2022-08-04T17:30:24;37.00;51.90
10441;DHT22;5268;49.346;9.522;2022-08-04T17:35:28;37.00;51.50
10441;DHT22;5268;49.346;9.522;2022-08-04T17:40:30;36.90;52.20
10441;DHT22;5268;49.346;9.522;2022-08-04T17:45:32;36.80;52.30
10441;DHT22;5268;49.346;9.522;2022-08-04T17:50:35;36.70;52.10
10441;DHT22;5268;49.346;9.522;2022-08-04T17:55:40;36.60;52.10
10441;DHT22;5268;49.346;9.522;2022-08-04T18:00:42;36.50;52.40
10441;DHT22;5268;49.346;9.522;2022-08-04T18:05:46;36.40;52.40
10441;DHT22;5268;49.346;9.522;2022-08-04T18:10:50;36.30;52.60
10441;DHT22;5268;49.346;9.522;2022-08-04T18:16:00;36.20;52.60
10441;DHT22;5268;49.346;9.522;2022-08-04T18:21:03;35.90;52.40
10441;DHT22;5268;49.346;9.522;2022-08-04T18:26:05;35.70;52.60
10441;DHT22;5268;49.346;9.522;2022-08-04T18:31:07;35.40;52.40
10441;DHT22;5268;49.346;9.522;2022-08-04T18:36:11;35.20;52.60
10441;DHT22;5268;49.346;9.522;2022-08-04T18:41:13;34.90;52.70
10441;DHT22;5268;49.346;9.522;2022-08-04T18:46:15;34.70;52.80
10441;DHT22;5268;49.346;9.522;2022-08-04T18:51:18;34.40;52.90
10441;DHT22;5268;49.346;9.522;2022-08-04T18:56:20;34.00;53.20
10441;DHT22;5268;49.346;9.522;2022-08-04T19:01:22;33.80;53.40
10441;DHT22;5268;49.346;9.522;2022-08-04T19:06:25;33.60;53.60
10441;DHT22;5268;49.346;9.522;2022-08-04T19:11:27;33.30;53.70
10441;DHT22;5268;49.346;9.522;2022-08-04T19:16:30;33.10;54.10
10441;DHT22;5268;49.346;9.522;2022-08-04T19:21:34;32.80;54.40
10441;DHT22;5268;49.346;9.522;2022-08-04T19:26:36;32.50;54.30
10441;DHT22;5268;49.346;9.522;2022-08-04T19:31:38;32.30;54.40
10441;DHT22;5268;49.346;9.522;2022-08-04T19:36:41;32.10;54.70
10441;DHT22;5268;49.346;9.522;2022-08-04T19:41:43;31.90;55.10
10441;DHT22;5268;49.346;9.522;2022-08-04T19:46:45;31.70;55.80
10441;DHT22;5268;49.346;9.522;2022-08-04T19:51:50;31.50;54.90
10441;DHT22;5268;49.346;9.522;2022-08-04T19:56:52;31.30;55.20
10441;DHT22;5268;49.346;9.522;2022-08-04T20:01:53;31.10;55.50
10441;DHT22;5268;49.346;9.522;2022-08-04T20:06:57;30.90;56.10
10441;DHT22;5268;49.346;9.522;2022-08-04T20:12:00;30.70;56.30
10441;DHT22;5268;49.346;9.522;2022-08-04T20:17:02;30.50;56.40
10441;DHT22;5268;49.346;9.522;2022-08-04T20:22:06;30.40;57.00
10441;DHT22;5268;49.346;9.522;2022-08-04T20:27:09;30.20;56.70
10441;DHT22;5268;49.346;9.522;2022-08-04T20:32:11;30.00;56.40
10441;DHT22;5268;49.346;9.522;2022-08-04T20:37:14;29.80;56.80
10441;DHT22;5268;49.346;9.522;2022-08-04T20:42:16;29.60;57.30
10441;DHT22;5268;49.346;9.522;2022-08-04T20:47:18;29.50;57.60
10441;DHT22;5268;49.346;9.522;2022-08-04T20:52:22;29.30;57.50
10441;DHT22;5268;49.346;9.522;2022-08-04T20:57:25;29.10;57.30
10441;DHT22;5268;49.346;9.522;2022-08-04T21:02:27;29.00;57.40
10441;DHT22;5268;49.346;9.522;2022-08-04T21:07:30;28.90;58.60
10441;DHT22;5268;49.346;9.522;2022-08-04T21:12:32;28.80;59.20
10441;DHT22;5268;49.346;9.522;2022-08-04T21:17:34;28.60;60.50
10441;DHT22;5268;49.346;9.522;2022-08-04T21:22:38;28.50;60.20
10441;DHT22;5268;49.346;9.522;2022-08-04T21:27:40;28.40;60.20
